createdAt,value
2022-08-05T00:01:27.925Z,3.22
2022-08-05T00:03:56.957Z,2.85
2022-08-05T00:06:32.118Z,2.53
2022-08-05T00:08:59.173Z,3.15
2022-08-05T00:11:34.515Z,3.00
2022-08-05T00:14:01.419Z,3.00
2022-08-05T00:16:35.749Z,2.70
2022-08-05T00:19:02.953Z,3.47
2022-08-05T00:21:30.498Z,3.17
2022-08-05T00:24:10.741Z,3.47
2022-08-05T00:26:37.371Z,3.10
2022-08-05T00:29:03.568Z,3.45
2022-08-05T00:31:53.675Z,3.65
2022-08-05T00:34:55.706Z,4.32
2022-08-05T00:37:12.692Z,4.85
2022-08-05T00:39:43.910Z,4.00
2022-08-05T00:42:31.778Z,4.13
2022-08-05T00:44:58.527Z,3.78
2022-08-05T00:47:25.575Z,4.65
2022-08-05T00:49:51.963Z,4.60
2022-08-05T00:52:18.197Z,5.32
2022-08-05T00:54:54.642Z,4.82
2022-08-05T00:57:22.404Z,5.50
2022-08-05T00:59:51.715Z,5.25
2022-08-05T01:02:17.884Z,5.10
2022-08-05T01:04:44.070Z,5.47
2022-08-05T01:07:13.739Z,5.45
2022-08-05T01:09:40.131Z,5.63
2022-08-05T01:12:17.875Z,5.43
2022-08-05T01:14:44.574Z,5.72
2022-08-05T01:17:10.730Z,6.15
2022-08-05T01:20:00.701Z,5.32
2022-08-05T01:22:24.085Z,5.47
2022-08-05T01:24:50.660Z,5.57
2022-08-05T01:27:19.164Z,5.07
2022-08-05T01:29:45.743Z,4.82
2022-08-05T01:32:18.608Z,5.00
2022-08-05T01:34:45.033Z,5.78
2022-08-05T01:37:18.064Z,4.97
2022-08-05T01:39:51.144Z,5.07
2022-08-05T01:42:17.398Z,5.53
2022-08-05T01:44:43.550Z,5.75
2022-08-05T01:47:11.910Z,5.45
2022-08-05T01:50:01.389Z,6.20
2022-08-05T01:52:25.219Z,5.95
2022-08-05T01:54:52.066Z,5.97
2022-08-05T01:58:29.565Z,6.57
2022-08-05T02:00:05.264Z,6.40
2022-08-05T02:02:37.980Z,5.35
2022-08-05T02:05:12.781Z,5.43
2022-08-05T02:07:41.639Z,5.28
2022-08-05T02:10:17.464Z,5.13
2022-08-05T02:12:43.841Z,5.93
2022-08-05T02:15:19.733Z,5.63
2022-08-05T02:18:33.038Z,5.18
2022-08-05T02:20:32.297Z,6.40
2022-08-05T02:23:05.366Z,5.32
2022-08-05T02:25:49.365Z,5.72
2022-08-05T02:28:16.549Z,5.97
2022-08-05T02:30:56.508Z,5.75
2022-08-05T02:33:24.634Z,5.65
2022-08-05T02:36:02.492Z,5.90
2022-08-05T02:38:28.699Z,5.70
2022-08-05T02:41:06.368Z,5.45
2022-08-05T02:44:02.497Z,5.65
2022-08-05T02:46:27.657Z,6.65
2022-08-05T02:48:53.937Z,5.43
2022-08-05T02:51:20.087Z,5.88
2022-08-05T02:53:54.898Z,5.65
2022-08-05T02:56:21.166Z,6.07
2022-08-05T02:58:51.585Z,5.88
2022-08-05T03:01:19.573Z,5.55
2022-08-05T03:04:02.023Z,5.90
2022-08-05T03:06:56.334Z,5.40
2022-08-05T03:09:15.928Z,5.07
2022-08-05T03:11:57.334Z,5.90
2022-08-05T03:14:24.350Z,5.75
2022-08-05T03:16:53.390Z,5.78
2022-08-05T03:19:34.594Z,5.68
2022-08-05T03:22:02.386Z,5.97
2022-08-05T03:24:31.007Z,6.00
2022-08-05T03:26:57.172Z,6.10
2022-08-05T03:29:23.507Z,5.70
2022-08-05T03:31:56.488Z,5.80
2022-08-05T03:34:26.503Z,6.28
2022-08-05T03:36:53.351Z,6.00
2022-08-05T03:39:27.264Z,6.25
2022-08-05T03:41:53.970Z,5.90
2022-08-05T03:44:22.588Z,6.35
2022-08-05T03:46:48.736Z,5.75
2022-08-05T03:49:15.583Z,6.43
2022-08-05T03:52:50.547Z,6.25
2022-08-05T03:55:50.441Z,6.45
2022-08-05T03:57:16.619Z,6.70
2022-08-05T03:59:47.022Z,6.70
2022-08-05T04:02:39.034Z,7.07
2022-08-05T04:05:09.660Z,7.65
2022-08-05T04:07:36.189Z,6.80
2022-08-05T04:10:22.330Z,5.63
2022-08-05T04:12:48.525Z,4.50
2022-08-05T04:15:15.549Z,4.93
2022-08-05T04:17:56.601Z,4.60
2022-08-05T04:20:23.691Z,4.43
2022-08-05T04:22:49.862Z,5.18
2022-08-05T04:25:16.738Z,4.70
2022-08-05T04:27:56.660Z,4.18
2022-08-05T04:30:24.412Z,4.20
2022-08-05T04:32:52.776Z,3.60
2022-08-05T04:35:19.487Z,3.67
2022-08-05T04:38:01.046Z,2.92
2022-08-05T04:40:29.219Z,3.08
2022-08-05T04:42:55.739Z,3.45
2022-08-05T04:45:22.887Z,3.10
2022-08-05T04:48:08.196Z,3.15
2022-08-05T04:51:01.551Z,3.20
2022-08-05T04:53:28.861Z,2.80
2022-08-05T04:56:14.986Z,2.80
2022-08-05T04:58:46.059Z,3.25
2022-08-05T05:01:13.155Z,3.38
2022-08-05T05:03:41.919Z,3.10
2022-08-05T05:06:38.766Z,3.00
2022-08-05T05:08:55.054Z,2.90
2022-08-05T05:11:21.655Z,3.05
2022-08-05T05:14:08.587Z,3.30
2022-08-05T05:16:34.968Z,2.65
2022-08-05T05:19:18.797Z,3.08
2022-08-05T05:21:47.280Z,3.15
2022-08-05T05:24:13.484Z,3.00
2022-08-05T05:26:46.475Z,3.28
2022-08-05T05:29:16.216Z,2.78
2022-08-05T05:31:42.399Z,2.97
2022-08-05T05:34:12.780Z,3.60
2022-08-05T05:36:41.659Z,2.83
2022-08-05T05:39:10.888Z,3.20
2022-08-05T05:41:40.713Z,3.17
2022-08-05T05:44:36.848Z,3.78
2022-08-05T05:46:54.148Z,3.35
2022-08-05T05:49:23.300Z,3.33
2022-08-05T05:51:50.777Z,3.42
2022-08-05T05:54:19.749Z,3.20
2022-08-05T05:56:45.919Z,2.90
2022-08-05T05:59:13.596Z,2.90
2022-08-05T06:01:40.152Z,3.17
2022-08-05T06:04:06.478Z,3.38
2022-08-05T06:06:34.960Z,2.75
2022-08-05T06:09:01.296Z,3.45
2022-08-05T06:11:29.988Z,3.40
2022-08-05T06:13:56.530Z,3.50
2022-08-05T06:16:29.921Z,3.45
2022-08-05T06:18:59.870Z,3.38
2022-08-05T06:21:36.011Z,3.00
2022-08-05T06:24:03.515Z,3.40
2022-08-05T06:26:33.782Z,3.10
2022-08-05T06:29:03.519Z,3.42
2022-08-05T06:31:47.379Z,3.63
2022-08-05T06:34:16.842Z,2.90
2022-08-05T06:36:57.534Z,3.38
2022-08-05T06:39:27.866Z,2.80
2022-08-05T06:41:54.348Z,3.15
2022-08-05T06:44:22.029Z,3.20
2022-08-05T06:46:50.785Z,3.78
2022-08-05T06:49:17.415Z,3.50
2022-08-05T06:51:45.003Z,3.88
2022-08-05T06:54:12.060Z,3.08
2022-08-05T06:56:54.713Z,3.25
2022-08-05T06:59:38.549Z,3.15
2022-08-05T07:02:05.117Z,3.38
2022-08-05T07:04:31.319Z,3.28
2022-08-05T07:06:59.229Z,2.97
2022-08-05T07:09:25.406Z,3.63
2022-08-05T07:12:00.489Z,3.13
2022-08-05T07:14:29.207Z,3.08
2022-08-05T07:18:00.013Z,2.70
2022-08-05T07:20:31.005Z,2.50
2022-08-05T07:22:30.134Z,2.80
2022-08-05T07:24:56.639Z,2.90
2022-08-05T07:27:23.013Z,2.80
2022-08-05T07:30:28.015Z,2.50
2022-08-05T07:32:40.120Z,2.67
2022-08-05T07:36:02.309Z,2.70
2022-08-05T07:37:54.843Z,2.88
2022-08-05T07:40:31.853Z,3.15
2022-08-05T07:42:58.964Z,2.67
2022-08-05T07:45:43.381Z,2.92
2022-08-05T07:48:11.317Z,2.53
2022-08-05T07:50:39.597Z,2.60
2022-08-05T07:53:08.281Z,3.45
2022-08-05T07:55:44.195Z,3.10
2022-08-05T07:58:57.214Z,2.60
2022-08-05T08:01:12.368Z,2.67
2022-08-05T08:03:44.332Z,3.05
2022-08-05T08:06:11.238Z,3.00
2022-08-05T08:08:37.397Z,2.97
2022-08-05T08:11:03.593Z,3.10
2022-08-05T08:13:49.289Z,3.22
2022-08-05T08:16:50.519Z,3.83
2022-08-05T08:19:01.785Z,3.78
2022-08-05T08:21:28.387Z,3.42
2022-08-05T08:24:01.846Z,3.35
2022-08-05T08:26:30.727Z,3.63
2022-08-05T08:28:59.825Z,4.10
2022-08-05T08:31:43.122Z,3.55
2022-08-05T08:34:09.273Z,3.70
2022-08-05T08:36:49.027Z,3.20
2022-08-05T08:39:16.747Z,3.63
2022-08-05T08:41:51.989Z,3.50
2022-08-05T08:45:24.014Z,3.50
2022-08-05T08:47:21.617Z,3.78
2022-08-05T08:50:13.127Z,2.97
2022-08-05T08:52:34.735Z,3.25
2022-08-05T08:55:00.931Z,3.35
2022-08-05T08:57:42.061Z,3.47
2022-08-05T09:00:13.309Z,3.13
2022-08-05T09:02:41.984Z,2.78
2022-08-05T09:05:16.628Z,2.83
2022-08-05T09:07:57.413Z,3.65
2022-08-05T09:10:27.691Z,3.05
2022-08-05T09:12:55.874Z,2.70
2022-08-05T09:15:22.087Z,2.70
2022-08-05T09:17:52.917Z,2.72
2022-08-05T09:20:37.848Z,3.00
2022-08-05T09:23:05.039Z,2.85
2022-08-05T09:26:03.413Z,2.70
2022-08-05T09:28:21.158Z,2.50
2022-08-05T09:30:47.484Z,2.63
2022-08-05T09:33:17.202Z,2.63
2022-08-05T09:35:43.446Z,2.20
2022-08-05T09:38:12.672Z,2.50
2022-08-05T09:40:52.742Z,2.75
2022-08-05T09:43:20.219Z,2.45
2022-08-05T09:46:06.757Z,2.35
2022-08-05T09:48:32.631Z,2.42
2022-08-05T09:50:58.861Z,2.53
2022-08-05T09:53:54.951Z,2.30
2022-08-05T09:56:13.532Z,2.10
2022-08-05T09:58:41.668Z,2.20
2022-08-05T10:01:14.574Z,2.30
2022-08-05T10:03:56.564Z,2.20
2022-08-05T10:06:23.423Z,2.42
2022-08-05T10:08:50.364Z,2.30
2022-08-05T10:13:48.324Z,2.13
2022-08-05T10:16:15.478Z,2.80
2022-08-05T10:18:43.127Z,2.00
2022-08-05T10:21:15.636Z,2.22
2022-08-05T10:23:59.688Z,2.20
2022-08-05T10:26:32.381Z,2.28
2022-08-05T10:29:00.069Z,2.58
2022-08-05T10:32:54.812Z,2.20
2022-08-05T10:34:12.548Z,2.35
2022-08-05T10:36:39.783Z,2.40
2022-08-05T10:39:11.658Z,2.20
2022-08-05T10:41:45.353Z,2.42
2022-08-05T10:44:13.190Z,2.17
2022-08-05T10:46:39.347Z,2.25
2022-08-05T10:49:09.828Z,2.40
2022-08-05T10:51:36.424Z,2.35
2022-08-05T10:54:28.580Z,2.45
2022-08-05T10:56:58.903Z,2.30
2022-08-05T11:00:02.963Z,2.40
2022-08-05T11:02:14.476Z,2.45
2022-08-05T11:04:58.000Z,2.25
2022-08-05T11:07:32.853Z,2.25
2022-08-05T11:10:10.426Z,2.78
2022-08-05T11:12:38.038Z,2.78
2022-08-05T11:15:19.082Z,2.22
2022-08-05T11:17:57.232Z,2.60
2022-08-05T11:20:26.764Z,2.70
2022-08-05T11:22:58.044Z,2.88
2022-08-05T11:26:05.273Z,2.80
2022-08-05T11:28:17.241Z,3.08
2022-08-05T11:30:43.624Z,2.47
2022-08-05T11:33:20.903Z,2.60
2022-08-05T11:36:07.951Z,3.05
2022-08-05T11:38:45.271Z,2.80
2022-08-05T11:41:58.056Z,3.10
2022-08-05T11:44:07.202Z,3.03
2022-08-05T11:49:01.289Z,2.97
2022-08-05T11:51:44.667Z,3.40
2022-08-05T11:54:14.172Z,3.53
2022-08-05T11:56:40.938Z,3.38
2022-08-05T11:59:13.834Z,2.95
2022-08-05T12:01:42.118Z,3.55
2022-08-05T12:04:09.906Z,3.28
2022-08-05T12:06:39.883Z,3.65
2022-08-05T12:09:19.925Z,4.10
2022-08-05T12:11:46.434Z,3.42
2022-08-05T12:14:13.564Z,3.67
2022-08-05T12:16:39.804Z,3.70
2022-08-05T12:19:06.075Z,3.80
2022-08-05T12:21:38.999Z,3.55
2022-08-05T12:24:06.975Z,3.67
2022-08-05T12:26:33.671Z,3.65
2022-08-05T12:29:01.382Z,3.50
2022-08-05T12:31:33.665Z,3.25
2022-08-05T12:34:16.411Z,3.97
2022-08-05T12:36:47.245Z,3.35
2022-08-05T12:39:13.489Z,3.10
2022-08-05T12:41:43.905Z,3.40
2022-08-05T12:44:11.671Z,3.42
2022-08-05T12:46:40.503Z,3.63
2022-08-05T12:49:13.108Z,3.38
2022-08-05T12:52:13.976Z,3.40
2022-08-05T12:54:26.765Z,3.00
2022-08-05T12:56:52.977Z,3.13
2022-08-05T12:59:23.852Z,3.75
2022-08-05T13:01:59.857Z,2.92
2022-08-05T13:04:32.307Z,2.90
2022-08-05T13:06:58.471Z,3.00
2022-08-05T13:09:27.977Z,3.15
2022-08-05T13:12:01.648Z,3.13
2022-08-05T13:14:36.079Z,3.17
2022-08-05T13:17:02.894Z,3.05
2022-08-05T13:19:51.900Z,3.30
2022-08-05T13:22:28.086Z,3.33
2022-08-05T13:24:58.079Z,3.47
2022-08-05T13:27:36.316Z,3.20
2022-08-05T13:30:35.042Z,3.70
2022-08-05T13:32:51.747Z,2.92
2022-08-05T13:35:22.472Z,3.20
2022-08-05T13:38:05.074Z,3.42
2022-08-05T13:40:51.544Z,3.05
2022-08-05T13:43:22.015Z,3.70
2022-08-05T13:45:48.532Z,3.13
2022-08-05T13:48:58.358Z,3.33
2022-08-05T13:51:03.168Z,2.90
2022-08-05T13:53:29.339Z,3.25
2022-08-05T13:56:01.977Z,3.20
2022-08-05T13:58:31.208Z,3.40
2022-08-05T14:00:57.463Z,3.70
2022-08-05T14:03:23.985Z,3.30
2022-08-05T14:06:25.190Z,3.50
2022-08-05T14:08:36.778Z,3.28
2022-08-05T14:11:21.030Z,2.97
2022-08-05T14:13:48.532Z,3.17
2022-08-05T14:16:20.996Z,3.35
2022-08-05T14:18:47.161Z,3.30
2022-08-05T14:21:24.065Z,3.13
2022-08-05T14:24:00.510Z,3.30
2022-08-05T14:26:37.067Z,3.42
2022-08-05T14:29:15.963Z,3.63
2022-08-05T14:32:02.600Z,2.78
2022-08-05T14:34:29.339Z,3.00
2022-08-05T14:37:01.717Z,2.95
2022-08-05T14:39:27.918Z,3.20
2022-08-05T14:42:15.891Z,3.38
2022-08-05T14:44:41.584Z,3.05
2022-08-05T14:47:07.767Z,3.22
2022-08-05T14:49:59.621Z,3.63
2022-08-05T14:52:36.578Z,3.13
2022-08-05T14:55:07.423Z,3.22
2022-08-05T14:57:34.055Z,3.25
2022-08-05T15:00:20.024Z,3.42
2022-08-05T15:02:46.349Z,3.30
2022-08-05T15:05:13.517Z,3.33
2022-08-05T15:08:11.357Z,3.35
2022-08-05T15:10:28.893Z,4.10
2022-08-05T15:13:00.861Z,3.63
2022-08-05T15:15:54.420Z,3.67
2022-08-05T15:18:15.759Z,3.50
2022-08-05T15:20:43.606Z,3.10
2022-08-05T15:23:12.154Z,3.78
2022-08-05T15:25:53.053Z,3.25
2022-08-05T15:28:26.982Z,3.50
2022-08-05T15:30:54.093Z,3.50
2022-08-05T15:34:18.486Z,3.67
2022-08-05T15:36:16.944Z,4.70
2022-08-05T15:38:44.430Z,5.13
2022-08-05T15:41:23.160Z,4.05
2022-08-05T15:43:50.452Z,4.63
2022-08-05T15:46:16.765Z,5.30
2022-08-05T15:48:52.872Z,5.43
2022-08-05T15:52:10.017Z,6.10
2022-08-05T15:54:11.363Z,6.70
2022-08-05T15:56:41.667Z,7.82
2022-08-05T15:59:07.819Z,7.13
2022-08-05T16:01:39.474Z,7.18
2022-08-05T16:04:06.204Z,7.85
2022-08-05T16:06:36.548Z,8.30
2022-08-05T16:09:02.937Z,8.75
2022-08-05T16:11:42.469Z,9.57
2022-08-05T16:14:09.777Z,8.23
2022-08-05T16:16:35.955Z,7.65
2022-08-05T16:19:02.176Z,7.97
2022-08-05T16:22:00.466Z,9.10
2022-08-05T16:24:41.532Z,9.95
2022-08-05T16:27:00.661Z,10.40
2022-08-05T16:29:26.836Z,9.85
2022-08-05T16:31:57.793Z,11.18
2022-08-05T16:34:24.066Z,11.20
2022-08-05T16:36:50.267Z,12.07
2022-08-05T16:39:18.678Z,11.02
2022-08-05T16:42:27.732Z,10.77
2022-08-05T16:44:33.136Z,9.90
2022-08-05T16:46:59.297Z,11.20
2022-08-05T16:49:25.460Z,11.55
2022-08-05T16:51:56.850Z,11.85
2022-08-05T16:54:28.903Z,12.52
2022-08-05T16:56:59.004Z,12.80
2022-08-05T16:59:25.175Z,12.52
2022-08-05T17:01:56.087Z,13.80
2022-08-05T17:04:23.927Z,13.05
2022-08-05T17:06:53.577Z,14.52
2022-08-05T17:09:19.884Z,13.93
2022-08-05T17:11:48.706Z,14.32
2022-08-05T17:14:34.122Z,10.73
2022-08-05T17:17:01.004Z,8.93
2022-08-05T17:19:28.816Z,7.75
2022-08-05T17:21:56.787Z,7.38
2022-08-05T17:24:35.313Z,6.05
2022-08-05T17:27:08.555Z,6.32
2022-08-05T17:29:41.343Z,5.40
2022-08-05T17:32:08.428Z,5.95
2022-08-05T17:34:35.011Z,5.05
2022-08-05T17:37:01.197Z,5.38
2022-08-05T17:39:33.903Z,5.15
2022-08-05T17:42:17.499Z,4.53
2022-08-05T17:44:50.270Z,4.70
2022-08-05T17:47:17.464Z,4.40
2022-08-05T17:49:52.039Z,3.85
2022-08-05T17:52:30.659Z,4.10
2022-08-05T17:54:57.368Z,3.70
2022-08-05T17:57:24.493Z,3.65
2022-08-05T18:00:05.496Z,3.53
2022-08-05T18:02:32.219Z,3.28
2022-08-05T18:04:58.498Z,3.05
2022-08-05T18:07:25.024Z,3.03
2022-08-05T18:10:08.989Z,2.63
2022-08-05T18:12:36.732Z,3.10
2022-08-05T18:15:03.583Z,2.97
2022-08-05T18:17:59.599Z,2.90
2022-08-05T18:20:17.231Z,2.60
2022-08-05T18:22:53.815Z,2.72
2022-08-05T18:25:20.957Z,2.63
2022-08-05T18:27:52.483Z,2.45
2022-08-05T18:30:19.014Z,2.83
2022-08-05T18:32:59.958Z,2.45
2022-08-05T18:35:49.417Z,2.53
2022-08-05T18:38:13.002Z,2.22
2022-08-05T18:41:55.808Z,2.30
2022-08-05T18:43:31.662Z,2.47
2022-08-05T18:46:04.376Z,2.10
2022-08-05T18:48:33.007Z,2.10
2022-08-05T18:52:03.069Z,1.92
2022-08-05T18:53:50.330Z,1.80
2022-08-05T18:56:16.842Z,1.38
2022-08-05T18:58:47.983Z,1.80
2022-08-05T19:01:17.783Z,1.58
2022-08-05T19:03:53.286Z,1.60
2022-08-05T19:06:34.130Z,1.33
2022-08-05T19:09:04.084Z,1.70
2022-08-05T19:11:59.382Z,1.85
2022-08-05T19:14:59.466Z,1.75
2022-08-05T19:17:02.642Z,1.70
2022-08-05T19:19:32.716Z,1.33
2022-08-05T19:22:00.274Z,1.58
2022-08-05T19:24:34.579Z,1.90
2022-08-05T19:27:03.929Z,1.70
2022-08-05T19:29:36.041Z,1.50
2022-08-05T19:32:02.734Z,1.27
2022-08-05T19:34:30.660Z,1.63
2022-08-05T19:36:56.807Z,1.77
2022-08-05T19:39:23.029Z,1.50
2022-08-05T19:42:05.622Z,1.55
2022-08-05T19:44:36.281Z,1.65
2022-08-05T19:47:10.633Z,1.48
2022-08-05T19:49:41.332Z,1.50
2022-08-05T19:52:30.334Z,1.50
2022-08-05T19:54:54.417Z,1.55
2022-08-05T19:57:46.545Z,1.25
2022-08-05T20:00:06.736Z,1.52
2022-08-05T20:02:32.946Z,1.45
2022-08-05T20:04:59.798Z,1.40
2022-08-05T20:07:46.397Z,1.40
2022-08-05T20:10:13.666Z,1.52
2022-08-05T20:12:47.790Z,1.25
2022-08-05T20:15:23.038Z,1.60
2022-08-05T20:18:01.787Z,1.33
2022-08-05T20:20:39.552Z,1.27
2022-08-05T20:23:05.757Z,1.40
2022-08-05T20:25:39.975Z,1.48
2022-08-05T20:28:13.696Z,1.48
2022-08-05T20:30:41.614Z,1.40
2022-08-05T20:33:07.821Z,1.58
2022-08-05T20:35:40.657Z,1.45
2022-08-05T20:38:20.163Z,1.70
2022-08-05T20:40:52.922Z,1.52
2022-08-05T20:43:57.358Z,1.42
2022-08-05T20:46:10.122Z,1.55
2022-08-05T20:48:38.701Z,1.60
2022-08-05T20:51:08.543Z,1.80
2022-08-05T20:53:36.553Z,1.58
2022-08-05T20:56:08.731Z,1.90
2022-08-05T20:58:35.430Z,1.80
2022-08-05T21:01:01.700Z,1.60
2022-08-05T21:03:29.548Z,1.77
2022-08-05T21:06:00.950Z,1.80
2022-08-05T21:08:41.327Z,2.10
2022-08-05T21:11:09.340Z,1.90
2022-08-05T21:13:55.707Z,2.00
2022-08-05T21:16:22.703Z,1.90
2022-08-05T21:18:55.464Z,2.17
2022-08-05T21:21:24.458Z,2.90
2022-08-05T21:23:50.784Z,2.30
2022-08-05T21:26:18.240Z,2.38
2022-08-05T21:28:50.928Z,2.90
2022-08-05T21:31:17.327Z,1.80
2022-08-05T21:33:43.548Z,2.13
2022-08-05T21:36:14.124Z,1.75
2022-08-05T21:38:53.671Z,2.25
2022-08-05T21:41:20.753Z,2.90
2022-08-05T21:44:01.280Z,1.85
2022-08-05T21:46:28.111Z,1.90
2022-08-05T21:48:56.626Z,2.53
2022-08-05T21:51:25.191Z,2.00
2022-08-05T21:54:09.496Z,2.17
2022-08-05T21:56:35.674Z,1.80
2022-08-05T21:59:24.091Z,1.80
2022-08-05T22:01:54.716Z,1.80
2022-08-05T22:04:20.984Z,1.38
2022-08-05T22:06:51.477Z,1.50
2022-08-05T22:09:20.999Z,1.80
2022-08-05T22:11:48.465Z,1.48
2022-08-05T22:14:34.070Z,1.83
2022-08-05T22:17:03.866Z,1.70
2022-08-05T22:20:00.466Z,1.63
2022-08-05T22:22:27.082Z,1.75
2022-08-05T22:24:56.007Z,1.63
2022-08-05T22:27:22.315Z,1.65
2022-08-05T22:29:48.470Z,1.55
2022-08-05T22:32:20.338Z,1.60
2022-08-05T22:34:49.186Z,1.73
2022-08-05T22:37:15.611Z,1.50
2022-08-05T22:39:41.829Z,1.77
2022-08-05T22:42:15.417Z,1.88
2022-08-05T22:44:56.264Z,1.63
2022-08-05T22:47:30.127Z,1.50
2022-08-05T22:50:21.472Z,1.55
2022-08-05T22:52:42.912Z,1.70
2022-08-05T22:55:18.369Z,1.65
2022-08-05T22:57:46.200Z,1.70
2022-08-05T23:00:12.462Z,1.80
2022-08-05T23:02:46.973Z,2.10
2022-08-05T23:05:13.687Z,1.98
2022-08-05T23:07:48.289Z,1.70
2022-08-05T23:10:15.786Z,1.75
2022-08-05T23:12:45.904Z,1.52
2022-08-05T23:15:12.317Z,2.00
2022-08-05T23:18:00.800Z,1.90
2022-08-05T23:20:25.180Z,1.63
2022-08-05T23:22:56.044Z,1.50
2022-08-05T23:28:08.752Z,1.77
2022-08-05T23:30:34.920Z,1.50
2022-08-05T23:33:06.891Z,1.60
2022-08-05T23:35:42.705Z,1.52
2022-08-05T23:38:12.120Z,1.60
2022-08-05T23:40:38.410Z,1.50
2022-08-05T23:43:24.348Z,1.67
2022-08-05T23:45:50.789Z,1.63
2022-08-05T23:48:17.061Z,1.60
2022-08-05T23:50:45.840Z,1.83
2022-08-05T23:53:22.891Z,1.65
2022-08-05T23:55:49.363Z,1.48
2022-08-05T23:58:31.821Z,1.92
